sensor_id;sensor_type;location;lat;lon;timestamp;P1;durP1;ratioP1;P2;durP2;ratioP2
16824;SDS011;8529;48.108;-1.706;2023-06-26T00:00:33;5.38;;;1.67;;
16824;SDS011;8529;48.108;-1.706;2023-06-26T00:03:02;4.25;;;1.50;;
16824;SDS011;8529;48.108;-1.706;2023-06-26T00:05:29;4.70;;;1.58;;
16824;SDS011;8529;48.108;-1.706;2023-06-26T00:07:56;4.95;;;1.77;;
16824;SDS011;8529;48.108;-1.706;2023-06-26T00:10:25;3.05;;;1.83;;
16824;SDS011;8529;48.108;-1.706;2023-06-26T00:12:53;5.88;;;1.25;;
16824;SDS011;8529;48.108;-1.706;2023-06-26T00:15:20;6.50;;;1.85;;
16824;SDS011;8529;48.108;-1.706;2023-06-26T00:17:47;5.55;;;2.00;;
16824;SDS011;8529;48.108;-1.706;2023-06-26T00:20:15;2.83;;;1.75;;
16824;SDS011;8529;48.108;-1.706;2023-06-26T00:22:44;4.13;;;1.48;;
16824;SDS011;8529;48.108;-1.706;2023-06-26T00:25:11;6.80;;;2.00;;
16824;SDS011;8529;48.108;-1.706;2023-06-26T00:27:38;3.42;;;1.40;;
16824;SDS011;8529;48.108;-1.706;2023-06-26T00:30:08;3.05;;;1.58;;
16824;SDS011;8529;48.108;-1.706;2023-06-26T00:32:36;5.72;;;1.55;;
16824;SDS011;8529;48.108;-1.706;2023-06-26T00:35:03;8.05;;;2.20;;
16824;SDS011;8529;48.108;-1.706;2023-06-26T00:37:30;6.68;;;1.90;;
16824;SDS011;8529;48.108;-1.706;2023-06-26T00:39:57;3.72;;;1.65;;
16824;SDS011;8529;48.108;-1.706;2023-06-26T00:42:24;3.92;;;1.80;;
16824;SDS011;8529;48.108;-1.706;2023-06-26T00:44:51;5.20;;;1.38;;
16824;SDS011;8529;48.108;-1.706;2023-06-26T00:47:19;5.68;;;1.67;;
16824;SDS011;8529;48.108;-1.706;2023-06-26T00:49:46;3.20;;;1.70;;
16824;SDS011;8529;48.108;-1.706;2023-06-26T00:52:14;3.35;;;1.70;;
16824;SDS011;8529;48.108;-1.706;2023-06-26T00:54:41;3.97;;;1.88;;
16824;SDS011;8529;48.108;-1.706;2023-06-26T00:57:08;3.08;;;1.65;;
16824;SDS011;8529;48.108;-1.706;2023-06-26T00:59:35;3.50;;;1.52;;
16824;SDS011;8529;48.108;-1.706;2023-06-26T01:02:03;3.40;;;1.63;;
16824;SDS011;8529;48.108;-1.706;2023-06-26T01:04:31;5.93;;;1.63;;
16824;SDS011;8529;48.108;-1.706;2023-06-26T01:07:00;4.90;;;1.52;;
16824;SDS011;8529;48.108;-1.706;2023-06-26T01:09:33;7.00;;;1.88;;
16824;SDS011;8529;48.108;-1.706;2023-06-26T01:12:00;6.88;;;2.08;;
16824;SDS011;8529;48.108;-1.706;2023-06-26T01:14:28;3.05;;;1.80;;
16824;SDS011;8529;48.108;-1.706;2023-06-26T01:16:55;7.05;;;2.08;;
16824;SDS011;8529;48.108;-1.706;2023-06-26T01:19:23;7.72;;;2.10;;
16824;SDS011;8529;48.108;-1.706;2023-06-26T01:21:54;7.00;;;2.20;;
16824;SDS011;8529;48.108;-1.706;2023-06-26T01:24:24;5.20;;;1.73;;
16824;SDS011;8529;48.108;-1.706;2023-06-26T01:26:59;6.10;;;1.98;;
16824;SDS011;8529;48.108;-1.706;2023-06-26T01:29:27;8.73;;;1.80;;
16824;SDS011;8529;48.108;-1.706;2023-06-26T01:31:57;5.45;;;2.20;;
16824;SDS011;8529;48.108;-1.706;2023-06-26T01:34:24;4.30;;;1.67;;
16824;SDS011;8529;48.108;-1.706;2023-06-26T01:36:52;5.80;;;1.98;;
16824;SDS011;8529;48.108;-1.706;2023-06-26T01:39:19;4.60;;;2.00;;
16824;SDS011;8529;48.108;-1.706;2023-06-26T01:41:46;6.35;;;2.08;;
16824;SDS011;8529;48.108;-1.706;2023-06-26T01:44:20;4.65;;;2.30;;
16824;SDS011;8529;48.108;-1.706;2023-06-26T01:46:54;5.00;;;2.03;;
16824;SDS011;8529;48.108;-1.706;2023-06-26T01:49:28;11.02;;;2.28;;
16824;SDS011;8529;48.108;-1.706;2023-06-26T01:52:01;5.43;;;1.95;;
16824;SDS011;8529;48.108;-1.706;2023-06-26T01:54:35;6.70;;;2.92;;
16824;SDS011;8529;48.108;-1.706;2023-06-26T01:57:05;3.72;;;2.22;;
16824;SDS011;8529;48.108;-1.706;2023-06-26T01:59:36;7.75;;;2.95;;
16824;SDS011;8529;48.108;-1.706;2023-06-26T02:02:06;4.43;;;2.28;;
16824;SDS011;8529;48.108;-1.706;2023-06-26T02:04:33;5.20;;;2.20;;
16824;SDS011;8529;48.108;-1.706;2023-06-26T02:07:02;3.72;;;2.15;;
16824;SDS011;8529;48.108;-1.706;2023-06-26T02:09:29;7.05;;;2.50;;
16824;SDS011;8529;48.108;-1.706;2023-06-26T02:11:56;7.22;;;2.17;;
16824;SDS011;8529;48.108;-1.706;2023-06-26T02:14:23;4.10;;;2.10;;
16824;SDS011;8529;48.108;-1.706;2023-06-26T02:16:51;3.97;;;2.30;;
16824;SDS011;8529;48.108;-1.706;2023-06-26T02:19:18;7.15;;;2.35;;
16824;SDS011;8529;48.108;-1.706;2023-06-26T02:21:46;4.43;;;1.90;;
16824;SDS011;8529;48.108;-1.706;2023-06-26T02:24:14;6.00;;;2.20;;
16824;SDS011;8529;48.108;-1.706;2023-06-26T02:26:41;4.88;;;2.63;;
16824;SDS011;8529;48.108;-1.706;2023-06-26T02:29:08;7.57;;;2.50;;
16824;SDS011;8529;48.108;-1.706;2023-06-26T02:31:35;7.43;;;2.20;;
16824;SDS011;8529;48.108;-1.706;2023-06-26T02:34:03;8.55;;;2.55;;
16824;SDS011;8529;48.108;-1.706;2023-06-26T02:36:30;7.20;;;2.20;;
16824;SDS011;8529;48.108;-1.706;2023-06-26T02:38:57;4.65;;;2.17;;
16824;SDS011;8529;48.108;-1.706;2023-06-26T02:41:24;5.65;;;2.25;;
16824;SDS011;8529;48.108;-1.706;2023-06-26T02:43:51;5.05;;;2.03;;
16824;SDS011;8529;48.108;-1.706;2023-06-26T02:46:18;8.40;;;2.80;;
16824;SDS011;8529;48.108;-1.706;2023-06-26T02:48:44;2.67;;;1.83;;
16824;SDS011;8529;48.108;-1.706;2023-06-26T02:51:13;6.88;;;2.15;;
16824;SDS011;8529;48.108;-1.706;2023-06-26T02:53:40;6.93;;;2.30;;
16824;SDS011;8529;48.108;-1.706;2023-06-26T02:56:06;5.45;;;2.08;;
16824;SDS011;8529;48.108;-1.706;2023-06-26T02:58:33;7.25;;;2.65;;
16824;SDS011;8529;48.108;-1.706;2023-06-26T03:01:00;5.53;;;2.47;;
16824;SDS011;8529;48.108;-1.706;2023-06-26T03:03:27;4.93;;;2.15;;
16824;SDS011;8529;48.108;-1.706;2023-06-26T03:05:54;7.45;;;2.42;;
16824;SDS011;8529;48.108;-1.706;2023-06-26T03:08:23;5.40;;;2.30;;
16824;SDS011;8529;48.108;-1.706;2023-06-26T03:10:50;3.78;;;1.92;;
16824;SDS011;8529;48.108;-1.706;2023-06-26T03:13:17;3.22;;;1.70;;
16824;SDS011;8529;48.108;-1.706;2023-06-26T03:15:44;6.45;;;2.40;;
16824;SDS011;8529;48.108;-1.706;2023-06-26T03:18:11;6.35;;;2.15;;
16824;SDS011;8529;48.108;-1.706;2023-06-26T03:20:38;5.38;;;2.08;;
16824;SDS011;8529;48.108;-1.706;2023-06-26T03:23:05;3.88;;;2.30;;
16824;SDS011;8529;48.108;-1.706;2023-06-26T03:25:33;10.80;;;2.60;;
16824;SDS011;8529;48.108;-1.706;2023-06-26T03:28:00;9.57;;;2.25;;
16824;SDS011;8529;48.108;-1.706;2023-06-26T03:30:27;5.85;;;2.40;;
16824;SDS011;8529;48.108;-1.706;2023-06-26T03:32:54;7.15;;;2.15;;
16824;SDS011;8529;48.108;-1.706;2023-06-26T03:35:21;6.15;;;2.65;;
16824;SDS011;8529;48.108;-1.706;2023-06-26T03:37:48;6.03;;;2.22;;
16824;SDS011;8529;48.108;-1.706;2023-06-26T03:40:15;6.50;;;2.13;;
16824;SDS011;8529;48.108;-1.706;2023-06-26T03:42:43;8.50;;;2.35;;
16824;SDS011;8529;48.108;-1.706;2023-06-26T03:45:11;8.40;;;2.40;;
16824;SDS011;8529;48.108;-1.706;2023-06-26T03:47:38;6.38;;;2.63;;
16824;SDS011;8529;48.108;-1.706;2023-06-26T03:50:05;3.72;;;2.10;;
16824;SDS011;8529;48.108;-1.706;2023-06-26T03:52:32;5.05;;;2.20;;
16824;SDS011;8529;48.108;-1.706;2023-06-26T03:54:59;6.20;;;2.30;;
16824;SDS011;8529;48.108;-1.706;2023-06-26T03:57:28;9.57;;;2.90;;
16824;SDS011;8529;48.108;-1.706;2023-06-26T03:59:56;6.43;;;2.72;;
16824;SDS011;8529;48.108;-1.706;2023-06-26T04:02:23;7.28;;;3.05;;
16824;SDS011;8529;48.108;-1.706;2023-06-26T04:04:50;8.68;;;2.50;;
16824;SDS011;8529;48.108;-1.706;2023-06-26T04:07:17;5.28;;;2.70;;
16824;SDS011;8529;48.108;-1.706;2023-06-26T04:09:44;6.53;;;2.50;;
16824;SDS011;8529;48.108;-1.706;2023-06-26T04:12:10;9.07;;;2.40;;
16824;SDS011;8529;48.108;-1.706;2023-06-26T04:14:37;6.53;;;2.30;;
16824;SDS011;8529;48.108;-1.706;2023-06-26T04:17:05;8.32;;;2.97;;
16824;SDS011;8529;48.108;-1.706;2023-06-26T04:19:33;6.30;;;2.50;;
16824;SDS011;8529;48.108;-1.706;2023-06-26T04:22:01;9.73;;;2.20;;
16824;SDS011;8529;48.108;-1.706;2023-06-26T04:24:28;7.75;;;2.78;;
16824;SDS011;8529;48.108;-1.706;2023-06-26T04:26:56;7.88;;;2.75;;
16824;SDS011;8529;48.108;-1.706;2023-06-26T04:29:23;7.13;;;2.47;;
16824;SDS011;8529;48.108;-1.706;2023-06-26T04:31:50;5.72;;;2.25;;
16824;SDS011;8529;48.108;-1.706;2023-06-26T04:34:19;7.00;;;2.50;;
16824;SDS011;8529;48.108;-1.706;2023-06-26T04:36:45;3.80;;;2.67;;
16824;SDS011;8529;48.108;-1.706;2023-06-26T04:39:13;5.38;;;2.05;;
16824;SDS011;8529;48.108;-1.706;2023-06-26T04:41:40;6.65;;;2.28;;
16824;SDS011;8529;48.108;-1.706;2023-06-26T04:44:07;4.50;;;2.15;;
16824;SDS011;8529;48.108;-1.706;2023-06-26T04:46:34;9.60;;;2.97;;
16824;SDS011;8529;48.108;-1.706;2023-06-26T04:49:06;4.78;;;2.17;;
16824;SDS011;8529;48.108;-1.706;2023-06-26T04:51:34;5.05;;;2.05;;
16824;SDS011;8529;48.108;-1.706;2023-06-26T04:54:05;7.15;;;2.55;;
16824;SDS011;8529;48.108;-1.706;2023-06-26T04:56:32;6.78;;;2.50;;
16824;SDS011;8529;48.108;-1.706;2023-06-26T04:58:59;5.72;;;2.67;;
16824;SDS011;8529;48.108;-1.706;2023-06-26T05:01:26;6.78;;;2.40;;
16824;SDS011;8529;48.108;-1.706;2023-06-26T05:03:54;7.20;;;2.80;;
16824;SDS011;8529;48.108;-1.706;2023-06-26T05:06:21;6.70;;;2.20;;
16824;SDS011;8529;48.108;-1.706;2023-06-26T05:08:50;7.03;;;2.88;;
16824;SDS011;8529;48.108;-1.706;2023-06-26T05:11:17;5.88;;;2.17;;
16824;SDS011;8529;48.108;-1.706;2023-06-26T05:13:44;7.53;;;2.45;;
16824;SDS011;8529;48.108;-1.706;2023-06-26T05:16:11;7.50;;;2.47;;
16824;SDS011;8529;48.108;-1.706;2023-06-26T05:18:38;6.15;;;2.70;;
16824;SDS011;8529;48.108;-1.706;2023-06-26T05:21:05;6.95;;;2.95;;
16824;SDS011;8529;48.108;-1.706;2023-06-26T05:23:32;5.15;;;2.50;;
16824;SDS011;8529;48.108;-1.706;2023-06-26T05:26:02;8.95;;;3.00;;
16824;SDS011;8529;48.108;-1.706;2023-06-26T05:28:30;5.80;;;2.47;;
16824;SDS011;8529;48.108;-1.706;2023-06-26T05:30:57;8.55;;;2.95;;
16824;SDS011;8529;48.108;-1.706;2023-06-26T05:33:25;6.75;;;2.90;;
16824;SDS011;8529;48.108;-1.706;2023-06-26T05:35:53;5.05;;;2.75;;
16824;SDS011;8529;48.108;-1.706;2023-06-26T05:38:21;6.22;;;2.40;;
16824;SDS011;8529;48.108;-1.706;2023-06-26T05:40:49;4.57;;;2.65;;
16824;SDS011;8529;48.108;-1.706;2023-06-26T05:43:18;4.85;;;2.83;;
16824;SDS011;8529;48.108;-1.706;2023-06-26T05:45:46;6.55;;;2.85;;
16824;SDS011;8529;48.108;-1.706;2023-06-26T05:48:14;5.30;;;2.63;;
16824;SDS011;8529;48.108;-1.706;2023-06-26T05:50:42;5.50;;;2.65;;
16824;SDS011;8529;48.108;-1.706;2023-06-26T05:53:10;6.30;;;2.92;;
16824;SDS011;8529;48.108;-1.706;2023-06-26T05:55:37;6.53;;;2.80;;
16824;SDS011;8529;48.108;-1.706;2023-06-26T05:58:07;4.00;;;2.25;;
16824;SDS011;8529;48.108;-1.706;2023-06-26T06:00:38;9.40;;;3.00;;
16824;SDS011;8529;48.108;-1.706;2023-06-26T06:03:05;6.70;;;2.72;;
16824;SDS011;8529;48.108;-1.706;2023-06-26T06:05:32;6.25;;;2.72;;
16824;SDS011;8529;48.108;-1.706;2023-06-26T06:07:59;4.13;;;3.00;;
16824;SDS011;8529;48.108;-1.706;2023-06-26T06:10:26;7.22;;;2.83;;
16824;SDS011;8529;48.108;-1.706;2023-06-26T06:12:53;7.30;;;2.70;;
16824;SDS011;8529;48.108;-1.706;2023-06-26T06:15:20;7.63;;;3.30;;
16824;SDS011;8529;48.108;-1.706;2023-06-26T06:17:48;5.55;;;2.80;;
16824;SDS011;8529;48.108;-1.706;2023-06-26T06:20:16;7.43;;;2.70;;
16824;SDS011;8529;48.108;-1.706;2023-06-26T06:22:44;8.27;;;2.42;;
16824;SDS011;8529;48.108;-1.706;2023-06-26T06:25:13;6.45;;;2.30;;
16824;SDS011;8529;48.108;-1.706;2023-06-26T06:27:40;6.35;;;2.75;;
16824;SDS011;8529;48.108;-1.706;2023-06-26T06:30:08;7.25;;;2.80;;
16824;SDS011;8529;48.108;-1.706;2023-06-26T06:32:36;5.22;;;2.53;;
16824;SDS011;8529;48.108;-1.706;2023-06-26T06:35:04;9.90;;;2.85;;
16824;SDS011;8529;48.108;-1.706;2023-06-26T06:37:34;3.22;;;1.90;;
16824;SDS011;8529;48.108;-1.706;2023-06-26T06:40:02;4.57;;;1.98;;
16824;SDS011;8529;48.108;-1.706;2023-06-26T06:42:30;6.68;;;2.42;;
16824;SDS011;8529;48.108;-1.706;2023-06-26T06:44:58;8.30;;;2.50;;
16824;SDS011;8529;48.108;-1.706;2023-06-26T06:47:24;9.27;;;2.47;;
16824;SDS011;8529;48.108;-1.706;2023-06-26T06:49:51;5.28;;;2.90;;
16824;SDS011;8529;48.108;-1.706;2023-06-26T06:52:20;6.88;;;2.42;;
16824;SDS011;8529;48.108;-1.706;2023-06-26T06:54:53;8.10;;;2.30;;
16824;SDS011;8529;48.108;-1.706;2023-06-26T06:57:21;6.13;;;2.65;;
16824;SDS011;8529;48.108;-1.706;2023-06-26T06:59:48;7.32;;;2.63;;
16824;SDS011;8529;48.108;-1.706;2023-06-26T07:02:16;4.72;;;1.92;;
16824;SDS011;8529;48.108;-1.706;2023-06-26T07:04:43;6.05;;;2.15;;
16824;SDS011;8529;48.108;-1.706;2023-06-26T07:07:10;6.85;;;2.13;;
16824;SDS011;8529;48.108;-1.706;2023-06-26T07:09:40;6.53;;;2.30;;
16824;SDS011;8529;48.108;-1.706;2023-06-26T07:12:07;8.27;;;2.63;;
16824;SDS011;8529;48.108;-1.706;2023-06-26T07:14:34;4.93;;;2.08;;
16824;SDS011;8529;48.108;-1.706;2023-06-26T07:17:01;9.82;;;2.22;;
16824;SDS011;8529;48.108;-1.706;2023-06-26T07:19:28;5.50;;;1.83;;
16824;SDS011;8529;48.108;-1.706;2023-06-26T07:21:54;5.63;;;2.05;;
16824;SDS011;8529;48.108;-1.706;2023-06-26T07:24:21;6.72;;;2.60;;
16824;SDS011;8529;48.108;-1.706;2023-06-26T07:26:50;7.35;;;2.83;;
16824;SDS011;8529;48.108;-1.706;2023-06-26T07:29:16;6.00;;;1.70;;
16824;SDS011;8529;48.108;-1.706;2023-06-26T07:31:43;5.05;;;2.15;;
16824;SDS011;8529;48.108;-1.706;2023-06-26T07:34:10;6.70;;;1.95;;
16824;SDS011;8529;48.108;-1.706;2023-06-26T07:36:37;4.45;;;1.60;;
16824;SDS011;8529;48.108;-1.706;2023-06-26T07:39:04;5.82;;;2.22;;
16824;SDS011;8529;48.108;-1.706;2023-06-26T07:41:31;7.32;;;2.05;;
16824;SDS011;8529;48.108;-1.706;2023-06-26T07:43:59;6.63;;;1.80;;
16824;SDS011;8529;48.108;-1.706;2023-06-26T07:46:26;5.40;;;1.67;;
16824;SDS011;8529;48.108;-1.706;2023-06-26T07:48:53;4.65;;;1.90;;
16824;SDS011;8529;48.108;-1.706;2023-06-26T07:51:20;3.33;;;1.42;;
16824;SDS011;8529;48.108;-1.706;2023-06-26T07:53:47;5.85;;;1.98;;
16824;SDS011;8529;48.108;-1.706;2023-06-26T07:56:14;3.28;;;1.45;;
16824;SDS011;8529;48.108;-1.706;2023-06-26T07:58:41;5.53;;;1.77;;
16824;SDS011;8529;48.108;-1.706;2023-06-26T08:01:09;5.00;;;2.28;;
16824;SDS011;8529;48.108;-1.706;2023-06-26T08:03:36;4.40;;;1.50;;
16824;SDS011;8529;48.108;-1.706;2023-06-26T08:06:03;7.15;;;1.70;;
16824;SDS011;8529;48.108;-1.706;2023-06-26T08:08:30;5.30;;;1.80;;
16824;SDS011;8529;48.108;-1.706;2023-06-26T08:10:57;4.93;;;1.98;;
16824;SDS011;8529;48.108;-1.706;2023-06-26T08:13:24;5.20;;;1.50;;
16824;SDS011;8529;48.108;-1.706;2023-06-26T08:15:51;4.88;;;1.50;;
16824;SDS011;8529;48.108;-1.706;2023-06-26T08:18:19;4.18;;;1.73;;
16824;SDS011;8529;48.108;-1.706;2023-06-26T08:20:46;4.70;;;1.83;;
16824;SDS011;8529;48.108;-1.706;2023-06-26T08:23:13;4.43;;;1.83;;
16824;SDS011;8529;48.108;-1.706;2023-06-26T08:25:40;4.40;;;1.30;;
16824;SDS011;8529;48.108;-1.706;2023-06-26T08:28:07;3.58;;;1.60;;
16824;SDS011;8529;48.108;-1.706;2023-06-26T08:30:34;3.70;;;1.70;;
16824;SDS011;8529;48.108;-1.706;2023-06-26T08:33:01;3.20;;;1.80;;
16824;SDS011;8529;48.108;-1.706;2023-06-26T08:35:29;5.13;;;1.88;;
16824;SDS011;8529;48.108;-1.706;2023-06-26T08:37:56;8.65;;;2.00;;
16824;SDS011;8529;48.108;-1.706;2023-06-26T08:40:23;6.50;;;1.75;;
16824;SDS011;8529;48.108;-1.706;2023-06-26T08:42:50;4.07;;;1.60;;
16824;SDS011;8529;48.108;-1.706;2023-06-26T08:45:18;4.43;;;1.65;;
16824;SDS011;8529;48.108;-1.706;2023-06-26T08:47:46;4.60;;;1.77;;
16824;SDS011;8529;48.108;-1.706;2023-06-26T08:50:17;6.85;;;1.63;;
16824;SDS011;8529;48.108;-1.706;2023-06-26T08:52:53;3.65;;;1.83;;
16824;SDS011;8529;48.108;-1.706;2023-06-26T08:55:23;3.33;;;1.42;;
16824;SDS011;8529;48.108;-1.706;2023-06-26T08:57:52;5.43;;;1.73;;
16824;SDS011;8529;48.108;-1.706;2023-06-26T09:00:19;4.72;;;1.55;;
16824;SDS011;8529;48.108;-1.706;2023-06-26T09:02:46;3.33;;;1.40;;
16824;SDS011;8529;48.108;-1.706;2023-06-26T09:05:13;5.32;;;1.70;;
16824;SDS011;8529;48.108;-1.706;2023-06-26T09:07:40;5.57;;;2.00;;
16824;SDS011;8529;48.108;-1.706;2023-06-26T09:10:09;5.60;;;1.90;;
16824;SDS011;8529;48.108;-1.706;2023-06-26T09:12:36;4.47;;;1.65;;
16824;SDS011;8529;48.108;-1.706;2023-06-26T09:15:03;3.28;;;1.40;;
16824;SDS011;8529;48.108;-1.706;2023-06-26T09:17:33;3.83;;;1.20;;
16824;SDS011;8529;48.108;-1.706;2023-06-26T09:20:05;2.58;;;1.30;;
16824;SDS011;8529;48.108;-1.706;2023-06-26T09:22:33;5.20;;;1.65;;
16824;SDS011;8529;48.108;-1.706;2023-06-26T09:25:03;3.75;;;1.40;;
16824;SDS011;8529;48.108;-1.706;2023-06-26T09:27:33;4.93;;;1.60;;
16824;SDS011;8529;48.108;-1.706;2023-06-26T09:30:01;6.30;;;2.08;;
16824;SDS011;8529;48.108;-1.706;2023-06-26T09:32:29;3.00;;;1.63;;
16824;SDS011;8529;48.108;-1.706;2023-06-26T09:34:56;5.97;;;1.48;;
16824;SDS011;8529;48.108;-1.706;2023-06-26T09:37:25;3.63;;;1.88;;
16824;SDS011;8529;48.108;-1.706;2023-06-26T09:39:53;5.00;;;2.30;;
16824;SDS011;8529;48.108;-1.706;2023-06-26T09:42:19;5.45;;;1.50;;
16824;SDS011;8529;48.108;-1.706;2023-06-26T09:44:51;2.67;;;1.40;;
16824;SDS011;8529;48.108;-1.706;2023-06-26T09:47:19;2.97;;;1.30;;
16824;SDS011;8529;48.108;-1.706;2023-06-26T09:49:45;6.35;;;1.20;;
16824;SDS011;8529;48.108;-1.706;2023-06-26T09:52:13;5.05;;;1.63;;
16824;SDS011;8529;48.108;-1.706;2023-06-26T09:54:41;2.22;;;1.23;;
16824;SDS011;8529;48.108;-1.706;2023-06-26T09:57:10;3.28;;;1.65;;
16824;SDS011;8529;48.108;-1.706;2023-06-26T09:59:38;2.75;;;1.20;;
16824;SDS011;8529;48.108;-1.706;2023-06-26T10:02:07;3.30;;;1.33;;
16824;SDS011;8529;48.108;-1.706;2023-06-26T10:04:35;2.53;;;1.38;;
16824;SDS011;8529;48.108;-1.706;2023-06-26T10:07:04;3.05;;;1.40;;
16824;SDS011;8529;48.108;-1.706;2023-06-26T10:09:32;5.40;;;1.75;;
16824;SDS011;8529;48.108;-1.706;2023-06-26T10:12:02;5.05;;;1.60;;
16824;SDS011;8529;48.108;-1.706;2023-06-26T10:14:32;3.95;;;1.67;;
16824;SDS011;8529;48.108;-1.706;2023-06-26T10:17:01;2.92;;;1.65;;
16824;SDS011;8529;48.108;-1.706;2023-06-26T10:19:31;4.05;;;1.48;;
16824;SDS011;8529;48.108;-1.706;2023-06-26T10:21:59;2.47;;;1.80;;
16824;SDS011;8529;48.108;-1.706;2023-06-26T10:24:29;3.65;;;1.60;;
16824;SDS011;8529;48.108;-1.706;2023-06-26T10:27:01;3.40;;;1.42;;
16824;SDS011;8529;48.108;-1.706;2023-06-26T10:29:30;4.28;;;1.63;;
16824;SDS011;8529;48.108;-1.706;2023-06-26T10:31:58;3.45;;;1.65;;
16824;SDS011;8529;48.108;-1.706;2023-06-26T10:34:27;3.28;;;1.42;;
16824;SDS011;8529;48.108;-1.706;2023-06-26T10:37:04;5.90;;;1.83;;
16824;SDS011;8529;48.108;-1.706;2023-06-26T10:39:45;4.25;;;1.58;;
16824;SDS011;8529;48.108;-1.706;2023-06-26T10:42:14;4.85;;;1.50;;
16824;SDS011;8529;48.108;-1.706;2023-06-26T10:44:41;5.07;;;1.50;;
16824;SDS011;8529;48.108;-1.706;2023-06-26T10:47:09;4.03;;;1.45;;
16824;SDS011;8529;48.108;-1.706;2023-06-26T10:49:37;3.22;;;1.73;;
16824;SDS011;8529;48.108;-1.706;2023-06-26T10:52:06;4.68;;;1.60;;
16824;SDS011;8529;48.108;-1.706;2023-06-26T10:54:34;3.78;;;1.30;;
16824;SDS011;8529;48.108;-1.706;2023-06-26T10:57:03;3.72;;;1.52;;
16824;SDS011;8529;48.108;-1.706;2023-06-26T10:59:33;4.38;;;1.77;;
16824;SDS011;8529;48.108;-1.706;2023-06-26T11:02:01;3.65;;;1.55;;
16824;SDS011;8529;48.108;-1.706;2023-06-26T11:04:38;3.15;;;1.30;;
16824;SDS011;8529;48.108;-1.706;2023-06-26T11:07:18;6.22;;;1.77;;
16824;SDS011;8529;48.108;-1.706;2023-06-26T11:09:53;4.43;;;1.40;;
16824;SDS011;8529;48.108;-1.706;2023-06-26T11:12:33;4.68;;;1.60;;
16824;SDS011;8529;48.108;-1.706;2023-06-26T11:15:01;4.30;;;1.88;;
16824;SDS011;8529;48.108;-1.706;2023-06-26T11:17:29;6.43;;;1.90;;
16824;SDS011;8529;48.108;-1.706;2023-06-26T11:19:56;2.85;;;1.45;;
16824;SDS011;8529;48.108;-1.706;2023-06-26T11:22:24;4.38;;;2.10;;
16824;SDS011;8529;48.108;-1.706;2023-06-26T11:24:53;3.33;;;1.60;;
16824;SDS011;8529;48.108;-1.706;2023-06-26T11:27:20;4.00;;;1.83;;
16824;SDS011;8529;48.108;-1.706;2023-06-26T11:29:49;3.17;;;1.55;;
16824;SDS011;8529;48.108;-1.706;2023-06-26T11:32:16;4.72;;;1.60;;
16824;SDS011;8529;48.108;-1.706;2023-06-26T11:34:43;3.45;;;1.98;;
16824;SDS011;8529;48.108;-1.706;2023-06-26T11:37:10;4.60;;;1.80;;
16824;SDS011;8529;48.108;-1.706;2023-06-26T11:39:38;3.05;;;1.58;;
16824;SDS011;8529;48.108;-1.706;2023-06-26T11:42:05;3.40;;;1.80;;
16824;SDS011;8529;48.108;-1.706;2023-06-26T11:44:32;2.85;;;1.25;;
16824;SDS011;8529;48.108;-1.706;2023-06-26T11:47:06;3.50;;;1.75;;
16824;SDS011;8529;48.108;-1.706;2023-06-26T11:49:34;4.72;;;1.90;;
16824;SDS011;8529;48.108;-1.706;2023-06-26T11:52:02;5.82;;;1.88;;
16824;SDS011;8529;48.108;-1.706;2023-06-26T11:54:29;4.80;;;1.98;;
16824;SDS011;8529;48.108;-1.706;2023-06-26T11:56:58;4.30;;;1.50;;
16824;SDS011;8529;48.108;-1.706;2023-06-26T11:59:34;4.53;;;1.50;;
16824;SDS011;8529;48.108;-1.706;2023-06-26T12:02:04;4.65;;;1.92;;
16824;SDS011;8529;48.108;-1.706;2023-06-26T12:04:32;2.33;;;1.55;;
16824;SDS011;8529;48.108;-1.706;2023-06-26T12:07:00;3.97;;;1.80;;
16824;SDS011;8529;48.108;-1.706;2023-06-26T12:09:30;4.20;;;1.65;;
16824;SDS011;8529;48.108;-1.706;2023-06-26T12:12:00;2.45;;;1.38;;
16824;SDS011;8529;48.108;-1.706;2023-06-26T12:14:28;4.70;;;1.80;;
16824;SDS011;8529;48.108;-1.706;2023-06-26T12:17:02;4.38;;;1.27;;
16824;SDS011;8529;48.108;-1.706;2023-06-26T12:19:30;2.38;;;1.25;;
16824;SDS011;8529;48.108;-1.706;2023-06-26T12:21:57;5.43;;;1.92;;
16824;SDS011;8529;48.108;-1.706;2023-06-26T12:24:24;4.57;;;1.52;;
16824;SDS011;8529;48.108;-1.706;2023-06-26T12:26:53;4.13;;;1.77;;
16824;SDS011;8529;48.108;-1.706;2023-06-26T12:29:28;2.47;;;1.40;;
16824;SDS011;8529;48.108;-1.706;2023-06-26T12:31:58;2.17;;;1.20;;
16824;SDS011;8529;48.108;-1.706;2023-06-26T12:34:26;2.67;;;1.20;;
16824;SDS011;8529;48.108;-1.706;2023-06-26T12:36:58;3.40;;;1.40;;
16824;SDS011;8529;48.108;-1.706;2023-06-26T12:39:26;2.47;;;1.10;;
16824;SDS011;8529;48.108;-1.706;2023-06-26T12:41:54;2.65;;;1.20;;
16824;SDS011;8529;48.108;-1.706;2023-06-26T12:44:27;1.65;;;1.20;;
16824;SDS011;8529;48.108;-1.706;2023-06-26T12:46:56;3.28;;;1.30;;
16824;SDS011;8529;48.108;-1.706;2023-06-26T12:49:30;2.53;;;1.52;;
16824;SDS011;8529;48.108;-1.706;2023-06-26T12:51:58;5.85;;;1.45;;
16824;SDS011;8529;48.108;-1.706;2023-06-26T12:54:26;1.95;;;1.10;;
16824;SDS011;8529;48.108;-1.706;2023-06-26T12:56:53;2.47;;;1.27;;
16824;SDS011;8529;48.108;-1.706;2023-06-26T12:59:20;2.47;;;1.60;;
16824;SDS011;8529;48.108;-1.706;2023-06-26T13:01:49;3.83;;;1.35;;
16824;SDS011;8529;48.108;-1.706;2023-06-26T13:04:15;3.08;;;1.52;;
16824;SDS011;8529;48.108;-1.706;2023-06-26T13:06:43;2.97;;;1.30;;
16824;SDS011;8529;48.108;-1.706;2023-06-26T13:09:10;3.17;;;1.25;;
16824;SDS011;8529;48.108;-1.706;2023-06-26T13:11:38;2.55;;;1.20;;
16824;SDS011;8529;48.108;-1.706;2023-06-26T13:14:05;2.97;;;1.40;;
16824;SDS011;8529;48.108;-1.706;2023-06-26T13:16:32;2.85;;;1.40;;
16824;SDS011;8529;48.108;-1.706;2023-06-26T13:19:00;3.88;;;1.40;;
16824;SDS011;8529;48.108;-1.706;2023-06-26T13:21:28;8.10;;;2.22;;
16824;SDS011;8529;48.108;-1.706;2023-06-26T13:23:55;5.10;;;1.73;;
16824;SDS011;8529;48.108;-1.706;2023-06-26T13:26:22;3.92;;;1.35;;
16824;SDS011;8529;48.108;-1.706;2023-06-26T13:28:50;3.67;;;1.33;;
16824;SDS011;8529;48.108;-1.706;2023-06-26T13:31:17;3.65;;;1.50;;
16824;SDS011;8529;48.108;-1.706;2023-06-26T13:33:44;2.10;;;1.27;;
16824;SDS011;8529;48.108;-1.706;2023-06-26T13:36:15;4.32;;;1.35;;
16824;SDS011;8529;48.108;-1.706;2023-06-26T13:38:42;5.68;;;1.65;;
16824;SDS011;8529;48.108;-1.706;2023-06-26T13:41:09;4.43;;;1.55;;
16824;SDS011;8529;48.108;-1.706;2023-06-26T13:43:36;3.78;;;1.40;;
16824;SDS011;8529;48.108;-1.706;2023-06-26T13:46:03;3.78;;;1.08;;
16824;SDS011;8529;48.108;-1.706;2023-06-26T13:48:30;3.17;;;1.17;;
16824;SDS011;8529;48.108;-1.706;2023-06-26T13:50:58;5.57;;;1.40;;
16824;SDS011;8529;48.108;-1.706;2023-06-26T13:53:27;2.47;;;1.50;;
16824;SDS011;8529;48.108;-1.706;2023-06-26T13:55:53;2.25;;;1.30;;
16824;SDS011;8529;48.108;-1.706;2023-06-26T13:58:20;4.32;;;1.30;;
16824;SDS011;8529;48.108;-1.706;2023-06-26T14:00:47;3.50;;;1.50;;
16824;SDS011;8529;48.108;-1.706;2023-06-26T14:03:14;2.55;;;1.35;;
16824;SDS011;8529;48.108;-1.706;2023-06-26T14:05:42;4.40;;;1.67;;
16824;SDS011;8529;48.108;-1.706;2023-06-26T14:08:09;3.63;;;1.48;;
16824;SDS011;8529;48.108;-1.706;2023-06-26T14:10:38;4.47;;;1.60;;
16824;SDS011;8529;48.108;-1.706;2023-06-26T14:13:05;2.85;;;1.50;;
16824;SDS011;8529;48.108;-1.706;2023-06-26T14:15:32;3.97;;;1.83;;
16824;SDS011;8529;48.108;-1.706;2023-06-26T14:18:00;2.78;;;1.50;;
16824;SDS011;8529;48.108;-1.706;2023-06-26T14:20:27;4.05;;;1.77;;
16824;SDS011;8529;48.108;-1.706;2023-06-26T14:22:57;2.58;;;1.30;;
16824;SDS011;8529;48.108;-1.706;2023-06-26T14:25:25;5.80;;;1.75;;
16824;SDS011;8529;48.108;-1.706;2023-06-26T14:27:54;3.40;;;1.38;;
16824;SDS011;8529;48.108;-1.706;2023-06-26T14:30:21;4.90;;;1.65;;
16824;SDS011;8529;48.108;-1.706;2023-06-26T14:32:48;4.55;;;1.90;;
16824;SDS011;8529;48.108;-1.706;2023-06-26T14:35:15;5.57;;;1.60;;
16824;SDS011;8529;48.108;-1.706;2023-06-26T14:37:42;4.00;;;1.40;;
16824;SDS011;8529;48.108;-1.706;2023-06-26T14:40:10;7.22;;;1.77;;
16824;SDS011;8529;48.108;-1.706;2023-06-26T14:42:37;3.00;;;1.60;;
16824;SDS011;8529;48.108;-1.706;2023-06-26T14:45:07;6.05;;;1.92;;
16824;SDS011;8529;48.108;-1.706;2023-06-26T14:47:34;5.28;;;1.77;;
16824;SDS011;8529;48.108;-1.706;2023-06-26T14:50:01;4.28;;;1.83;;
16824;SDS011;8529;48.108;-1.706;2023-06-26T14:52:28;4.63;;;1.75;;